createdAt,value
2022-10-05T00:00:59.150Z,100972.60
2022-10-05T00:03:39.070Z,100958.40
2022-10-05T00:06:15.671Z,100956.60
2022-10-05T00:08:49.382Z,100956.00
2022-10-05T00:11:23.015Z,100956.20
2022-10-05T00:13:57.006Z,100965.20
2022-10-05T00:16:32.042Z,100957.00
2022-10-05T00:19:10.497Z,100951.20
2022-10-05T00:21:44.038Z,100951.20
2022-10-05T00:24:20.862Z,100948.60
2022-10-05T00:26:57.958Z,100945.00
2022-10-05T00:29:32.031Z,100938.80
2022-10-05T00:32:05.956Z,100933.00
2022-10-05T00:34:40.220Z,100934.00
2022-10-05T00:37:15.013Z,100927.80
2022-10-05T00:39:50.801Z,100925.60
2022-10-05T00:42:44.503Z,100929.60
2022-10-05T00:45:25.604Z,100925.60
2022-10-05T00:48:17.390Z,100920.00
2022-10-05T00:51:11.869Z,100913.80
2022-10-05T00:53:55.927Z,100921.40
2022-10-05T00:56:55.775Z,100924.60
2022-10-05T00:59:47.668Z,100928.80
2022-10-05T01:02:36.512Z,100931.80
2022-10-05T01:05:21.059Z,100929.20
2022-10-05T01:08:05.651Z,100921.40
2022-10-05T01:10:47.908Z,100919.60
2022-10-05T01:13:35.771Z,100914.20
2022-10-05T01:16:16.354Z,100913.00
2022-10-05T01:19:00.329Z,100905.80
2022-10-05T01:21:46.579Z,100904.00
2022-10-05T01:24:55.717Z,100909.80
2022-10-05T01:27:58.545Z,100907.20
2022-10-05T01:30:41.316Z,100911.60
2022-10-05T01:33:25.604Z,100911.40
2022-10-05T01:36:11.199Z,100909.40
2022-10-05T01:38:57.693Z,100900.60
2022-10-05T01:41:46.328Z,100900.00
2022-10-05T01:44:24.599Z,100896.60
2022-10-05T01:47:06.966Z,100885.60
2022-10-05T01:49:48.423Z,100879.60
2022-10-05T01:52:37.592Z,100880.60
2022-10-05T01:55:26.296Z,100891.80
2022-10-05T01:58:13.750Z,100897.60
2022-10-05T02:01:01.720Z,100899.60
2022-10-05T02:03:44.190Z,100893.40
2022-10-05T02:06:24.792Z,100885.40
2022-10-05T02:09:10.963Z,100885.40
2022-10-05T02:11:50.363Z,100891.60
2022-10-05T02:14:33.084Z,100894.40
2022-10-05T02:17:16.308Z,100899.40
2022-10-05T02:19:58.164Z,100914.60
2022-10-05T02:22:37.193Z,100916.80
2022-10-05T02:25:17.591Z,100907.60
2022-10-05T02:27:58.355Z,100905.20
2022-10-05T02:30:36.432Z,100896.60
2022-10-05T02:33:19.981Z,100897.40
2022-10-05T02:35:54.500Z,100893.00
2022-10-05T02:38:40.978Z,100897.80
2022-10-05T02:41:27.799Z,100893.80
2022-10-05T02:44:13.919Z,100888.80
2022-10-05T02:46:57.998Z,100884.40
2022-10-05T02:49:42.519Z,100888.40
2022-10-05T02:52:23.042Z,100883.60
2022-10-05T02:55:04.535Z,100883.80
2022-10-05T02:57:47.963Z,100877.40
2022-10-05T03:00:25.668Z,100880.60
2022-10-05T03:03:07.504Z,100883.20
2022-10-05T03:05:49.583Z,100883.20
2022-10-05T03:08:32.035Z,100882.20
2022-10-05T03:11:19.924Z,100880.40
2022-10-05T03:14:09.348Z,100876.80
2022-10-05T03:16:56.357Z,100877.00
2022-10-05T03:19:52.891Z,100873.80
2022-10-05T03:22:39.968Z,100865.00
2022-10-05T03:25:56.612Z,100860.60
2022-10-05T03:28:44.801Z,100859.40
2022-10-05T03:31:28.050Z,100852.00
2022-10-05T03:34:12.528Z,100851.40
2022-10-05T03:36:57.333Z,100852.60
2022-10-05T03:39:40.619Z,100853.80
2022-10-05T03:42:28.841Z,100860.40
2022-10-05T03:45:10.622Z,100869.20
2022-10-05T03:48:01.486Z,100866.60
2022-10-05T03:50:52.237Z,100859.00
2022-10-05T03:53:33.034Z,100850.40
2022-10-05T03:56:17.663Z,100846.80
2022-10-05T03:58:59.466Z,100844.60
2022-10-05T04:01:44.555Z,100854.40
2022-10-05T04:04:29.061Z,100847.80
2022-10-05T04:07:04.705Z,100854.60
2022-10-05T04:09:46.959Z,100855.40
2022-10-05T04:12:29.056Z,100855.00
2022-10-05T04:15:11.081Z,100852.20
2022-10-05T04:17:51.796Z,100845.60
2022-10-05T04:20:31.831Z,100838.80
2022-10-05T04:23:16.063Z,100839.40
2022-10-05T04:25:57.302Z,100844.80
2022-10-05T04:28:42.730Z,100843.20
2022-10-05T04:31:32.326Z,100840.80
2022-10-05T04:34:16.438Z,100837.00
2022-10-05T04:37:01.071Z,100834.40
2022-10-05T04:39:47.280Z,100829.80
2022-10-05T04:42:32.444Z,100827.00
2022-10-05T04:45:23.406Z,100820.60
2022-10-05T04:48:26.490Z,100814.40
2022-10-05T04:51:21.533Z,100813.80
2022-10-05T04:54:05.111Z,100813.00
2022-10-05T04:56:47.010Z,100813.00
2022-10-05T05:00:00.007Z,100809.20
2022-10-05T05:02:54.949Z,100804.40
2022-10-05T05:06:15.230Z,100817.60
2022-10-05T05:09:27.891Z,100816.80
2022-10-05T05:12:25.342Z,100822.60
2022-10-05T05:15:29.839Z,100832.60
2022-10-05T05:18:37.683Z,100833.00
2022-10-05T05:21:33.812Z,100826.60
2022-10-05T05:24:33.013Z,100827.40
2022-10-05T05:27:40.738Z,100824.60
2022-10-05T05:30:24.480Z,100823.40
2022-10-05T05:33:15.873Z,100823.80
2022-10-05T05:36:30.316Z,100826.00
2022-10-05T05:39:29.089Z,100823.80
2022-10-05T05:42:26.476Z,100830.40
2022-10-05T05:45:11.939Z,100834.40
2022-10-05T05:47:55.215Z,100838.20
2022-10-05T05:50:50.267Z,100837.80
2022-10-05T05:53:30.852Z,100844.80
2022-10-05T05:56:13.257Z,100839.00
2022-10-05T05:58:56.275Z,100844.40
2022-10-05T06:01:44.279Z,100845.80
2022-10-05T06:04:27.495Z,100846.40
2022-10-05T06:07:07.437Z,100840.40
2022-10-05T06:09:46.514Z,100833.60
2022-10-05T06:12:39.818Z,100836.40
2022-10-05T06:15:30.724Z,100839.60
2022-10-05T06:18:12.288Z,100835.60
2022-10-05T06:20:54.327Z,100833.40
2022-10-05T06:23:39.088Z,100832.80
2022-10-05T06:26:35.335Z,100831.60
2022-10-05T06:29:18.121Z,100824.80
2022-10-05T06:32:07.276Z,100831.80
2022-10-05T06:35:03.991Z,100835.40
2022-10-05T06:38:06.313Z,100833.60
2022-10-05T06:41:02.808Z,100841.60
2022-10-05T06:43:54.534Z,100839.00
2022-10-05T06:47:18.128Z,100844.00
2022-10-05T06:50:34.187Z,100847.80
2022-10-05T06:53:42.112Z,100839.00
2022-10-05T06:56:29.555Z,100834.60
2022-10-05T06:59:15.087Z,100836.00
2022-10-05T07:02:01.356Z,100834.00
2022-10-05T07:05:07.688Z,100830.40
2022-10-05T07:07:53.894Z,100828.60
2022-10-05T07:10:41.740Z,100825.00
2022-10-05T07:13:43.817Z,100821.60
2022-10-05T07:16:33.441Z,100819.80
2022-10-05T07:19:26.372Z,100821.80
2022-10-05T07:22:34.266Z,100825.20
2022-10-05T07:25:17.817Z,100821.60
2022-10-05T07:28:00.032Z,100825.60
2022-10-05T07:30:47.268Z,100820.00
2022-10-05T07:33:30.228Z,100830.00
2022-10-05T07:36:32.012Z,100826.40
2022-10-05T07:39:17.704Z,100833.60
2022-10-05T07:42:01.683Z,100825.80
2022-10-05T07:44:44.728Z,100829.80
2022-10-05T07:47:32.407Z,100828.20
2022-10-05T07:50:19.921Z,100817.20
2022-10-05T07:53:04.177Z,100817.00
2022-10-05T07:55:46.207Z,100817.80
2022-10-05T07:58:30.527Z,100810.20
2022-10-05T08:01:19.987Z,100801.80
2022-10-05T08:04:06.694Z,100799.40
2022-10-05T08:06:51.662Z,100800.00
2022-10-05T08:09:42.195Z,100797.20
2022-10-05T08:12:33.384Z,100795.40
2022-10-05T08:15:16.141Z,100790.60
2022-10-05T08:18:00.635Z,100787.20
2022-10-05T08:20:46.587Z,100784.40
2022-10-05T08:23:31.236Z,100788.00
2022-10-05T08:26:22.670Z,100784.60
2022-10-05T08:29:14.314Z,100780.20
2022-10-05T08:31:55.077Z,100787.80
2022-10-05T08:34:37.028Z,100793.60
2022-10-05T08:37:20.374Z,100789.60
2022-10-05T08:40:05.904Z,100785.80
2022-10-05T08:43:11.577Z,100785.80
2022-10-05T08:46:13.885Z,100780.40
2022-10-05T08:49:24.884Z,100782.40
2022-10-05T08:52:38.599Z,100779.20
2022-10-05T08:55:43.677Z,100775.40
2022-10-05T08:58:43.889Z,100778.00
2022-10-05T09:01:30.696Z,100781.60
2022-10-05T09:04:33.732Z,100783.60
2022-10-05T09:07:39.068Z,100773.00
2022-10-05T09:11:06.178Z,100772.20
2022-10-05T09:14:15.694Z,100761.00
2022-10-05T09:17:28.971Z,100764.00
2022-10-05T09:20:23.371Z,100765.00
2022-10-05T09:23:12.573Z,100766.40
2022-10-05T09:26:08.474Z,100769.40
2022-10-05T09:29:09.956Z,100768.40
2022-10-05T09:32:16.712Z,100765.80
2022-10-05T09:35:15.217Z,100775.20
2022-10-05T09:38:26.653Z,100781.20
2022-10-05T09:41:44.840Z,100780.40
2022-10-05T09:45:00.300Z,100776.00
2022-10-05T09:48:05.850Z,100773.60
2022-10-05T09:51:39.699Z,100770.40
2022-10-05T09:54:57.178Z,100771.80
2022-10-05T09:58:41.159Z,100760.60
2022-10-05T10:01:35.216Z,100759.80
2022-10-05T10:04:49.247Z,100754.80
2022-10-05T10:07:59.535Z,100753.20
2022-10-05T10:11:03.484Z,100752.60
2022-10-05T10:14:05.605Z,100742.00
2022-10-05T10:17:02.099Z,100739.00
2022-10-05T10:20:26.395Z,100730.20
2022-10-05T10:23:36.276Z,100728.20
2022-10-05T10:26:50.251Z,100730.40
2022-10-05T10:29:47.214Z,100728.60
2022-10-05T10:32:49.981Z,100726.40
2022-10-05T10:35:36.298Z,100723.20
2022-10-05T10:39:00.357Z,100722.40
2022-10-05T10:42:03.270Z,100716.60
2022-10-05T10:45:21.809Z,100718.40
2022-10-05T10:48:05.487Z,100716.80
2022-10-05T10:51:20.658Z,100722.00
2022-10-05T10:54:29.878Z,100718.80
2022-10-05T10:57:10.666Z,100714.60
2022-10-05T11:03:37.637Z,100711.40
2022-10-05T11:06:33.751Z,100710.20
2022-10-05T11:09:41.390Z,100706.40
2022-10-05T11:13:25.082Z,100699.80
2022-10-05T11:16:25.916Z,100689.80
2022-10-05T11:20:05.007Z,100688.60
2022-10-05T11:23:06.541Z,100683.40
2022-10-05T11:26:18.389Z,100683.80
2022-10-05T11:29:33.518Z,100681.20
2022-10-05T11:33:02.741Z,100681.80
2022-10-05T11:36:00.242Z,100673.00
2022-10-05T11:39:24.163Z,100668.20
2022-10-05T11:42:33.782Z,100665.80
2022-10-05T11:45:40.280Z,100661.60
2022-10-05T11:49:00.881Z,100653.80
2022-10-05T11:51:52.399Z,100651.20
2022-10-05T11:55:11.818Z,100650.40
2022-10-05T11:57:55.801Z,100644.40
2022-10-05T12:00:37.449Z,100640.20
2022-10-05T12:03:34.583Z,100632.80
2022-10-05T12:06:43.416Z,100630.60
2022-10-05T12:10:04.922Z,100626.00
2022-10-05T12:12:51.538Z,100627.80
2022-10-05T12:15:34.654Z,100625.40
2022-10-05T12:18:21.519Z,100615.80
2022-10-05T12:21:05.084Z,100610.60
2022-10-05T12:23:47.329Z,100610.60
2022-10-05T12:26:28.694Z,100607.80
2022-10-05T12:29:15.083Z,100607.20
2022-10-05T12:32:00.966Z,100609.80
2022-10-05T12:34:51.378Z,100610.80
2022-10-05T12:37:47.082Z,100617.20
2022-10-05T12:40:37.499Z,100611.80
2022-10-05T12:43:24.301Z,100607.00
2022-10-05T12:46:14.420Z,100611.40
2022-10-05T12:49:13.866Z,100612.40
2022-10-05T12:51:57.085Z,100609.20
2022-10-05T12:54:46.260Z,100613.60
2022-10-05T12:57:34.115Z,100613.00
2022-10-05T13:00:20.441Z,100605.20
2022-10-05T13:03:05.624Z,100602.60
2022-10-05T13:05:50.899Z,100597.80
2022-10-05T13:08:36.461Z,100589.60
2022-10-05T13:11:21.007Z,100586.80
2022-10-05T13:14:09.834Z,100590.40
2022-10-05T13:16:55.101Z,100586.20
2022-10-05T13:19:40.522Z,100590.60
2022-10-05T13:22:33.202Z,100586.80
2022-10-05T13:25:27.323Z,100590.00
2022-10-05T13:28:19.874Z,100587.60
2022-10-05T13:31:08.533Z,100585.00
2022-10-05T13:34:19.407Z,100582.40
2022-10-05T13:37:13.589Z,100580.00
2022-10-05T13:40:04.834Z,100583.80
2022-10-05T13:42:48.394Z,100584.40
2022-10-05T13:45:30.007Z,100578.40
2022-10-05T13:48:28.302Z,100586.40
2022-10-05T13:51:13.925Z,100586.80
2022-10-05T13:54:00.268Z,100589.60
2022-10-05T13:56:43.872Z,100580.80
2022-10-05T13:59:29.237Z,100583.80
2022-10-05T14:02:10.308Z,100595.00
2022-10-05T14:04:53.166Z,100593.40
2022-10-05T14:07:38.352Z,100592.40
2022-10-05T14:10:31.429Z,100589.20
2022-10-05T14:13:23.410Z,100581.60
2022-10-05T14:16:19.744Z,100576.40
2022-10-05T14:19:15.349Z,100582.00
2022-10-05T14:22:01.560Z,100570.20
2022-10-05T14:24:45.654Z,100568.20
2022-10-05T14:27:28.170Z,100561.20
2022-10-05T14:30:21.011Z,100559.00
2022-10-05T14:32:59.531Z,100566.20
2022-10-05T14:35:50.697Z,100562.20
2022-10-05T14:38:29.535Z,100557.80
2022-10-05T14:41:21.433Z,100557.20
2022-10-05T14:44:03.120Z,100551.20
2022-10-05T14:46:38.723Z,100540.40
2022-10-05T14:49:29.185Z,100537.00
2022-10-05T14:52:32.731Z,100542.60
2022-10-05T14:55:21.287Z,100545.80
2022-10-05T14:58:14.650Z,100546.40
2022-10-05T15:01:01.631Z,100543.60
2022-10-05T15:04:02.372Z,100538.80
2022-10-05T15:06:43.688Z,100534.00
2022-10-05T15:09:57.850Z,100531.60
2022-10-05T15:12:41.190Z,100536.80
2022-10-05T15:15:33.121Z,100533.00
2022-10-05T15:18:21.767Z,100530.00
2022-10-05T15:21:06.302Z,100532.80
2022-10-05T15:23:49.657Z,100530.60
2022-10-05T15:26:46.284Z,100528.60
2022-10-05T15:29:54.939Z,100515.80
2022-10-05T15:33:01.200Z,100518.60
2022-10-05T15:35:45.901Z,100517.20
2022-10-05T15:38:26.617Z,100510.00
2022-10-05T15:41:14.907Z,100512.40
2022-10-05T15:44:06.219Z,100512.40
2022-10-05T15:46:56.532Z,100513.80
2022-10-05T15:49:44.661Z,100521.60
2022-10-05T15:52:30.029Z,100515.40
2022-10-05T15:55:26.694Z,100525.40
2022-10-05T15:58:31.434Z,100523.00
2022-10-05T16:01:14.205Z,100526.20
2022-10-05T16:03:55.589Z,100527.60
2022-10-05T16:07:05.829Z,100533.40
2022-10-05T16:09:58.635Z,100538.80
2022-10-05T16:12:48.554Z,100544.80
2022-10-05T16:15:34.760Z,100539.00
2022-10-05T16:18:48.958Z,100537.40
2022-10-05T16:21:35.815Z,100550.40
2022-10-05T16:24:28.960Z,100550.40
2022-10-05T16:27:11.587Z,100554.80
2022-10-05T16:29:56.162Z,100555.40
2022-10-05T16:32:39.178Z,100557.80
2022-10-05T16:35:25.653Z,100564.60
2022-10-05T16:38:17.449Z,100559.40
2022-10-05T16:41:05.033Z,100562.20
2022-10-05T16:43:52.913Z,100559.80
2022-10-05T16:46:35.274Z,100561.40
2022-10-05T16:49:24.350Z,100569.40
2022-10-05T16:52:02.807Z,100570.00
2022-10-05T16:54:47.484Z,100568.80
2022-10-05T16:57:30.235Z,100573.60
2022-10-05T17:00:24.808Z,100571.00
2022-10-05T17:03:28.818Z,100580.60
2022-10-05T17:06:38.204Z,100582.20
2022-10-05T17:09:49.042Z,100581.20
2022-10-05T17:12:42.468Z,100585.60
2022-10-05T17:15:37.279Z,100583.80
2022-10-05T17:18:30.082Z,100584.20
2022-10-05T17:21:23.010Z,100584.20
2022-10-05T17:24:13.613Z,100586.80
2022-10-05T17:27:17.979Z,100582.20
2022-10-05T17:29:55.232Z,100581.00
2022-10-05T17:32:58.299Z,100577.80
2022-10-05T17:35:58.445Z,100581.20
2022-10-05T17:38:52.415Z,100570.20
2022-10-05T17:41:31.266Z,100568.40
2022-10-05T17:44:26.471Z,100574.60
2022-10-05T17:47:04.136Z,100568.20
2022-10-05T17:50:19.090Z,100572.00
2022-10-05T17:53:52.935Z,100566.20
2022-10-05T17:56:27.608Z,100564.20
2022-10-05T17:59:06.834Z,100566.00
2022-10-05T18:01:42.894Z,100568.00
2022-10-05T18:04:45.086Z,100564.80
2022-10-05T18:07:29.776Z,100571.00
2022-10-05T18:10:29.246Z,100572.00
2022-10-05T18:13:34.847Z,100565.20
2022-10-05T18:16:12.404Z,100572.40
2022-10-05T18:19:00.297Z,100570.00
2022-10-05T18:21:50.839Z,100568.20
2022-10-05T18:24:56.101Z,100572.00
2022-10-05T18:27:58.515Z,100570.40
2022-10-05T18:30:41.694Z,100573.40
2022-10-05T18:33:53.457Z,100573.80
2022-10-05T18:36:52.719Z,100573.60
2022-10-05T18:39:52.022Z,100577.20
2022-10-05T18:42:40.170Z,100572.20
2022-10-05T18:45:29.280Z,100571.20
2022-10-05T18:48:18.505Z,100571.80
2022-10-05T18:51:01.868Z,100568.00
2022-10-05T18:53:49.615Z,100566.60
2022-10-05T18:56:37.707Z,100567.20
2022-10-05T18:59:37.121Z,100568.00
2022-10-05T19:02:28.910Z,100568.60
2022-10-05T19:05:46.261Z,100571.40
2022-10-05T19:08:32.888Z,100572.40
2022-10-05T19:11:19.285Z,100572.20
2022-10-05T19:14:06.977Z,100572.00
2022-10-05T19:17:19.180Z,100575.80
2022-10-05T19:20:21.787Z,100580.60
2022-10-05T19:23:24.061Z,100581.60
2022-10-05T19:26:10.564Z,100587.40
2022-10-05T19:29:03.064Z,100573.40
2022-10-05T19:31:49.543Z,100579.40
2022-10-05T19:34:50.421Z,100577.80
2022-10-05T19:37:38.516Z,100578.60
2022-10-05T19:40:26.595Z,100571.40
2022-10-05T19:43:23.841Z,100579.00
2022-10-05T19:46:16.351Z,100579.40
2022-10-05T19:48:56.802Z,100587.40
2022-10-05T19:51:38.255Z,100585.80
2022-10-05T19:54:26.935Z,100586.60
2022-10-05T19:57:02.694Z,100586.60
2022-10-05T19:59:40.590Z,100591.40
2022-10-05T20:02:19.733Z,100591.20
2022-10-05T20:04:55.180Z,100594.20
2022-10-05T20:07:29.232Z,100597.20
2022-10-05T20:10:26.779Z,100599.00
2022-10-05T20:13:03.514Z,100606.00
2022-10-05T20:15:56.624Z,100607.40
2022-10-05T20:19:08.170Z,100605.80
2022-10-05T20:21:50.511Z,100607.80
2022-10-05T20:24:27.590Z,100611.20
2022-10-05T20:27:29.731Z,100610.60
2022-10-05T20:30:06.493Z,100619.40
2022-10-05T20:32:41.643Z,100621.40
2022-10-05T20:35:16.612Z,100624.20
2022-10-05T20:37:51.148Z,100623.00
2022-10-05T20:40:25.078Z,100625.80
2022-10-05T20:42:59.269Z,100627.00
2022-10-05T20:45:33.297Z,100634.00
2022-10-05T20:48:07.356Z,100634.20
2022-10-05T20:50:42.067Z,100640.00
2022-10-05T20:53:16.331Z,100639.20
2022-10-05T20:55:50.823Z,100644.00
2022-10-05T20:58:25.375Z,100644.00
2022-10-05T21:01:19.167Z,100641.80
2022-10-05T21:03:53.656Z,100640.80
2022-10-05T21:06:29.676Z,100644.80
2022-10-05T21:09:03.596Z,100642.60
2022-10-05T21:11:38.364Z,100648.60
2022-10-05T21:14:13.287Z,100652.40
2022-10-05T21:16:47.946Z,100649.00
2022-10-05T21:19:22.635Z,100648.00
2022-10-05T21:21:58.092Z,100651.00
2022-10-05T21:24:34.345Z,100654.00
2022-10-05T21:27:10.079Z,100656.60
2022-10-05T21:29:45.758Z,100669.20
2022-10-05T21:32:20.258Z,100668.40
2022-10-05T21:34:54.655Z,100675.20
2022-10-05T21:37:29.136Z,100679.20
2022-10-05T21:40:04.669Z,100685.20
2022-10-05T21:42:39.349Z,100691.40
2022-10-05T21:45:14.870Z,100696.80
2022-10-05T21:47:49.284Z,100697.60
2022-10-05T21:50:23.492Z,100703.00
2022-10-05T21:52:58.083Z,100696.80
2022-10-05T21:55:35.410Z,100694.80
2022-10-05T21:58:10.092Z,100700.60
2022-10-05T22:00:44.207Z,100705.20
2022-10-05T22:03:18.829Z,100703.80
2022-10-05T22:05:53.482Z,100711.80
2022-10-05T22:08:32.160Z,100711.20
2022-10-05T22:11:15.870Z,100715.40
2022-10-05T22:13:52.585Z,100715.80
2022-10-05T22:16:28.019Z,100717.00
2022-10-05T22:19:07.576Z,100721.80
2022-10-05T22:21:41.989Z,100718.60
2022-10-05T22:24:15.942Z,100723.80
2022-10-05T22:26:52.991Z,100731.80
2022-10-05T22:29:27.380Z,100730.20
2022-10-05T22:32:01.674Z,100732.40
2022-10-05T22:34:36.035Z,100731.80
2022-10-05T22:37:13.642Z,100734.40
2022-10-05T22:39:48.350Z,100732.20
2022-10-05T22:42:22.259Z,100739.40
2022-10-05T22:44:56.200Z,100740.20
2022-10-05T22:47:30.324Z,100743.20
2022-10-05T22:50:03.988Z,100751.80
2022-10-05T22:52:37.899Z,100751.80
2022-10-05T22:55:14.202Z,100755.00
2022-10-05T22:57:49.692Z,100754.00
2022-10-05T23:00:35.211Z,100760.20
2022-10-05T23:03:17.917Z,100749.20
2022-10-05T23:05:59.316Z,100758.60
2022-10-05T23:08:34.244Z,100759.80
2022-10-05T23:11:10.363Z,100756.80
2022-10-05T23:13:45.054Z,100769.00
2022-10-05T23:16:23.233Z,100771.60
2022-10-05T23:18:59.009Z,100770.40
2022-10-05T23:21:33.856Z,100767.40
2022-10-05T23:24:07.608Z,100768.80
2022-10-05T23:26:41.437Z,100772.40
2022-10-05T23:29:15.105Z,100775.00
2022-10-05T23:31:48.977Z,100767.80
2022-10-05T23:34:22.979Z,100765.80
2022-10-05T23:36:56.754Z,100767.80
2022-10-05T23:39:30.549Z,100771.40
2022-10-05T23:42:05.144Z,100770.40
2022-10-05T23:44:38.972Z,100771.20
2022-10-05T23:47:12.678Z,100779.40
2022-10-05T23:49:46.402Z,100776.40
2022-10-05T23:52:20.198Z,100778.20
2022-10-05T23:54:54.029Z,100780.20
2022-10-05T23:57:28.221Z,100775.80
